createdAt,value
2022-12-27T00:01:59.782Z,101528.78
2022-12-27T00:04:01.401Z,101526.44
2022-12-27T00:06:07.229Z,101530.19
2022-12-27T00:08:10.196Z,101536.97
2022-12-27T00:10:12.032Z,101534.25
2022-12-27T00:12:13.608Z,101532.31
2022-12-27T00:14:15.311Z,101534.19
2022-12-27T00:16:18.535Z,101537.97
2022-12-27T00:18:20.103Z,101540.09
2022-12-27T00:20:21.724Z,101543.38
2022-12-27T00:22:23.290Z,101540.03
2022-12-27T00:24:26.218Z,101538.06
2022-12-27T00:26:29.576Z,101546.41
2022-12-27T00:28:31.380Z,101542.88
2022-12-27T00:30:32.979Z,101553.84
2022-12-27T00:32:34.763Z,101557.06
2022-12-27T00:34:36.255Z,101556.97
2022-12-27T00:36:37.868Z,101564.56
2022-12-27T00:38:39.657Z,101560.97
2022-12-27T00:40:42.664Z,101570.13
2022-12-27T00:42:44.243Z,101568.16
2022-12-27T00:44:45.757Z,101567.84
2022-12-27T00:46:47.333Z,101570.72
2022-12-27T00:48:48.982Z,101575.38
2022-12-27T00:50:50.523Z,101575.78
2022-12-27T00:52:52.329Z,101577.06
2022-12-27T00:54:53.883Z,101578.84
2022-12-27T00:56:56.726Z,101583.66
2022-12-27T00:59:00.782Z,101583.44
2022-12-27T01:01:07.629Z,101582.38
2022-12-27T01:03:09.332Z,101586.44
2022-12-27T01:05:10.995Z,101595.09
2022-12-27T01:07:13.638Z,101590.59
2022-12-27T01:09:17.087Z,101589.28
2022-12-27T01:11:18.959Z,101587.19
2022-12-27T01:13:24.217Z,101600.63
2022-12-27T01:15:25.748Z,101605.34
2022-12-27T01:17:29.310Z,101606.50
2022-12-27T01:19:30.982Z,101611.34
2022-12-27T01:21:32.489Z,101614.03
2022-12-27T01:23:34.319Z,101618.16
2022-12-27T01:25:35.970Z,101608.84
2022-12-27T01:27:37.483Z,101611.16
2022-12-27T01:29:40.383Z,101616.72
2022-12-27T01:31:42.237Z,101613.69
2022-12-27T01:33:44.422Z,101616.16
2022-12-27T01:35:45.919Z,101620.72
2022-12-27T01:37:47.522Z,101621.28
2022-12-27T01:39:49.038Z,101617.88
2022-12-27T01:41:50.607Z,101625.94
2022-12-27T01:43:52.188Z,101623.50
2022-12-27T01:45:55.103Z,101613.47
2022-12-27T01:48:00.783Z,101622.81
2022-12-27T01:50:18.225Z,101618.41
2022-12-27T01:52:21.431Z,101621.69
2022-12-27T01:54:23.501Z,101621.69
2022-12-27T01:56:31.044Z,101623.91
2022-12-27T01:58:36.337Z,101628.72
2022-12-27T02:00:38.723Z,101624.53
2022-12-27T02:15:03.015Z,101644.31
2022-12-27T02:17:06.913Z,101653.69
2022-12-27T02:19:16.815Z,101652.84
2022-12-27T02:21:43.305Z,101639.66
2022-12-27T02:23:57.867Z,101648.66
2022-12-27T02:26:26.273Z,101638.97
2022-12-27T02:28:48.963Z,101642.91
2022-12-27T02:30:53.436Z,101651.09
2022-12-27T02:33:00.178Z,101646.06
2022-12-27T02:35:12.543Z,101656.47
2022-12-27T02:37:14.474Z,101646.31
2022-12-27T02:39:19.207Z,101656.94
2022-12-27T02:41:21.179Z,101657.53
2022-12-27T02:43:22.800Z,101659.97
2022-12-27T02:45:30.135Z,101663.47
2022-12-27T02:47:32.846Z,101662.91
2022-12-27T02:49:36.771Z,101664.28
2022-12-27T02:51:51.024Z,101652.81
2022-12-27T02:54:02.553Z,101658.31
2022-12-27T02:56:19.967Z,101663.00
2022-12-27T02:58:30.668Z,101661.84
2022-12-27T03:00:42.823Z,101659.72
2022-12-27T03:03:16.109Z,101656.47
2022-12-27T03:05:25.405Z,101654.00
2022-12-27T03:07:37.721Z,101662.06
2022-12-27T03:09:55.249Z,101659.50
2022-12-27T03:11:56.964Z,101665.38
2022-12-27T03:14:07.322Z,101659.88
2022-12-27T03:16:18.527Z,101665.94
2022-12-27T03:18:25.448Z,101662.19
2022-12-27T03:20:27.293Z,101665.59
2022-12-27T03:22:30.785Z,101669.41
2022-12-27T03:24:35.427Z,101669.41
2022-12-27T03:26:39.979Z,101673.75
2022-12-27T03:28:44.973Z,101673.84
2022-12-27T03:30:52.489Z,101672.25
2022-12-27T03:32:59.141Z,101680.66
2022-12-27T03:35:08.081Z,101673.41
2022-12-27T03:37:14.219Z,101677.97
2022-12-27T03:39:20.335Z,101670.72
2022-12-27T03:41:27.216Z,101674.94
2022-12-27T03:43:29.856Z,101673.41
2022-12-27T03:45:39.510Z,101675.63
2022-12-27T03:47:48.939Z,101678.66
2022-12-27T03:49:58.599Z,101676.91
2022-12-27T03:52:06.916Z,101671.75
2022-12-27T03:54:16.253Z,101667.44
2022-12-27T03:56:18.266Z,101676.31
2022-12-27T03:58:20.404Z,101673.84
2022-12-27T04:00:22.206Z,101677.97
2022-12-27T04:02:23.873Z,101678.31
2022-12-27T04:04:25.583Z,101674.44
2022-12-27T04:06:28.580Z,101665.44
2022-12-27T04:08:30.161Z,101672.09
2022-12-27T04:10:31.793Z,101672.91
2022-12-27T04:12:33.336Z,101679.59
2022-12-27T04:14:34.879Z,101679.34
2022-12-27T04:16:36.445Z,101680.16
2022-12-27T04:18:37.991Z,101687.19
2022-12-27T04:20:39.718Z,101676.44
2022-12-27T04:22:42.717Z,101677.28
2022-12-27T04:24:44.314Z,101678.06
2022-12-27T04:26:45.821Z,101679.25
2022-12-27T04:28:47.494Z,101678.41
2022-12-27T04:30:49.212Z,101673.53
2022-12-27T04:32:50.783Z,101673.41
2022-12-27T04:34:52.360Z,101680.16
2022-12-27T04:36:53.950Z,101678.66
2022-12-27T04:38:56.866Z,101683.19
2022-12-27T04:40:58.489Z,101673.75
2022-12-27T04:43:00.114Z,101680.03
2022-12-27T04:45:01.617Z,101670.56
2022-12-27T04:47:03.456Z,101673.97
2022-12-27T04:49:05.279Z,101667.88
2022-12-27T04:51:09.121Z,101668.47
2022-12-27T04:53:11.892Z,101669.63
2022-12-27T04:55:18.704Z,101672.31
2022-12-27T04:57:20.258Z,101673.50
2022-12-27T04:59:21.840Z,101674.44
2022-12-27T05:01:23.633Z,101683.09
2022-12-27T05:03:25.537Z,101675.03
2022-12-27T05:05:27.445Z,101673.06
2022-12-27T05:07:29.145Z,101684.25
2022-12-27T05:09:30.740Z,101687.41
2022-12-27T05:11:33.714Z,101688.34
2022-12-27T05:13:35.360Z,101693.34
2022-12-27T05:15:37.017Z,101702.09
2022-12-27T05:17:38.570Z,101700.31
2022-12-27T05:19:40.213Z,101695.53
2022-12-27T05:21:44.571Z,101704.19
2022-12-27T05:23:46.176Z,101703.47
2022-12-27T05:25:47.763Z,101709.88
2022-12-27T05:27:50.707Z,101704.56
2022-12-27T05:29:52.287Z,101711.19
2022-12-27T05:31:53.874Z,101711.44
2022-12-27T05:33:56.462Z,101718.44
2022-12-27T05:35:59.136Z,101716.25
2022-12-27T05:38:01.303Z,101722.34
2022-12-27T05:40:02.951Z,101727.72
2022-12-27T05:42:04.739Z,101728.78
2022-12-27T05:44:07.896Z,101723.91
2022-12-27T05:46:10.998Z,101729.19
2022-12-27T05:48:12.785Z,101731.53
2022-12-27T05:50:14.417Z,101721.47
2022-12-27T05:52:15.982Z,101723.69
2022-12-27T05:54:17.615Z,101724.00
2022-12-27T05:56:20.679Z,101724.56
2022-12-27T05:58:22.293Z,101726.44
2022-12-27T06:00:25.278Z,101725.81
2022-12-27T06:02:26.949Z,101724.84
2022-12-27T06:04:28.624Z,101732.66
2022-12-27T06:06:30.264Z,101728.50
2022-12-27T06:08:32.523Z,101727.63
2022-12-27T06:10:34.090Z,101729.34
2022-12-27T06:12:36.223Z,101734.72
2022-12-27T06:14:37.796Z,101726.66
2022-12-27T06:16:40.762Z,101733.28
2022-12-27T06:18:42.704Z,101733.75
2022-12-27T06:20:44.258Z,101740.34
2022-12-27T06:22:45.910Z,101742.66
2022-12-27T06:24:47.522Z,101745.66
2022-12-27T06:26:49.184Z,101748.94
2022-12-27T06:28:52.029Z,101752.34
2022-12-27T06:30:53.655Z,101752.13
2022-12-27T06:32:56.614Z,101751.91
2022-12-27T06:35:01.265Z,101745.66
2022-12-27T06:37:02.944Z,101754.75
2022-12-27T06:39:04.538Z,101755.63
2022-12-27T06:41:08.401Z,101757.94
2022-12-27T06:43:10.149Z,101760.03
2022-12-27T06:45:11.760Z,101756.75
2022-12-27T06:47:13.413Z,101758.03
2022-12-27T06:49:16.448Z,101752.41
2022-12-27T06:51:20.035Z,101761.91
2022-12-27T06:53:21.913Z,101752.88
2022-12-27T06:55:24.041Z,101750.41
2022-12-27T06:57:25.602Z,101759.72
2022-12-27T06:59:27.223Z,101762.41
2022-12-27T07:01:29.125Z,101755.19
2022-12-27T07:03:30.745Z,101759.38
2022-12-27T07:05:34.949Z,101767.09
2022-12-27T07:07:36.561Z,101767.63
2022-12-27T07:09:38.139Z,101769.25
2022-12-27T07:11:39.771Z,101776.69
2022-12-27T07:13:43.638Z,101781.50
2022-12-27T07:15:45.281Z,101781.03
2022-12-27T07:17:46.851Z,101773.81
2022-12-27T07:19:48.491Z,101781.84
2022-12-27T07:21:51.485Z,101781.41
2022-12-27T07:23:53.478Z,101781.84
2022-12-27T07:25:55.199Z,101783.94
2022-12-27T07:27:56.750Z,101787.41
2022-12-27T07:34:25.456Z,101796.06
2022-12-27T07:36:30.022Z,101799.41
2022-12-27T07:38:33.248Z,101806.59
2022-12-27T07:40:36.754Z,101810.75
2022-12-27T07:42:40.285Z,101819.03
2022-12-27T07:44:44.727Z,101806.28
2022-12-27T07:46:52.452Z,101812.47
2022-12-27T07:49:03.392Z,101817.59
2022-12-27T07:51:05.669Z,101813.25
2022-12-27T07:53:07.836Z,101814.97
2022-12-27T07:55:13.520Z,101822.81
2022-12-27T07:57:15.248Z,101818.72
2022-12-27T07:59:16.953Z,101815.19
2022-12-27T08:01:20.326Z,101814.53
2022-12-27T08:03:22.162Z,101815.13
2022-12-27T08:05:27.594Z,101827.28
2022-12-27T08:07:29.782Z,101827.94
2022-12-27T08:09:35.208Z,101831.81
2022-12-27T08:11:38.481Z,101831.59
2022-12-27T08:13:40.179Z,101829.50
2022-12-27T08:15:44.419Z,101828.19
2022-12-27T08:17:46.103Z,101820.97
2022-12-27T08:19:48.119Z,101828.34
2022-12-27T08:21:49.758Z,101824.63
2022-12-27T08:23:51.428Z,101827.56
2022-12-27T08:25:53.085Z,101826.78
2022-12-27T08:28:04.952Z,101836.84
2022-12-27T08:30:08.384Z,101837.44
2022-12-27T08:32:10.044Z,101846.09
2022-12-27T08:34:11.772Z,101846.88
2022-12-27T08:36:54.116Z,101846.41
2022-12-27T08:38:41.288Z,101848.63
2022-12-27T08:40:44.610Z,101848.25
2022-12-27T08:42:46.455Z,101841.44
2022-12-27T08:44:49.518Z,101844.91
2022-12-27T08:46:51.285Z,101847.44
2022-12-27T08:48:53.046Z,101843.59
2022-12-27T08:50:55.114Z,101846.47
2022-12-27T08:52:57.728Z,101852.22
2022-12-27T08:54:59.512Z,101855.66
2022-12-27T08:57:01.189Z,101853.56
2022-12-27T08:59:03.296Z,101851.34
2022-12-27T09:01:07.748Z,101843.78
2022-12-27T09:03:31.807Z,101852.22
2022-12-27T09:05:41.392Z,101853.72
2022-12-27T09:07:43.754Z,101861.69
2022-12-27T09:09:45.428Z,101857.38
2022-12-27T09:11:47.150Z,101862.66
2022-12-27T09:13:48.936Z,101859.91
2022-12-27T09:15:50.658Z,101874.50
2022-12-27T09:17:53.843Z,101866.81
2022-12-27T09:19:56.332Z,101860.41
2022-12-27T09:22:01.406Z,101861.84
2022-12-27T09:24:03.378Z,101857.19
2022-12-27T09:26:06.598Z,101853.31
2022-12-27T09:28:08.369Z,101857.44
2022-12-27T09:30:10.954Z,101862.91
2022-12-27T09:32:12.588Z,101853.22
2022-12-27T09:34:15.923Z,101858.00
2022-12-27T09:36:19.772Z,101853.03
2022-12-27T09:38:21.541Z,101865.97
2022-12-27T09:40:23.385Z,101870.91
2022-12-27T09:43:00.724Z,101870.16
2022-12-27T09:45:09.149Z,101873.34
2022-12-27T09:47:15.684Z,101872.69
2022-12-27T09:49:27.341Z,101859.25
2022-12-27T09:51:35.627Z,101854.72
2022-12-27T09:53:46.454Z,101871.22
2022-12-27T09:55:51.866Z,101861.28
2022-12-27T09:58:12.637Z,101859.28
2022-12-27T10:00:17.735Z,101863.56
2022-12-27T10:02:21.538Z,101855.34
2022-12-27T10:04:34.657Z,101865.72
2022-12-27T10:07:04.302Z,101858.94
2022-12-27T10:09:23.569Z,101861.06
2022-12-27T10:11:37.215Z,101852.44
2022-12-27T10:13:49.683Z,101857.03
2022-12-27T10:16:05.522Z,101855.66
2022-12-27T10:20:58.743Z,101859.38
2022-12-27T10:23:06.603Z,101854.94
2022-12-27T10:25:13.839Z,101869.69
2022-12-27T10:27:23.829Z,101865.09
2022-12-27T10:29:31.737Z,101861.72
2022-12-27T10:31:44.985Z,101868.03
2022-12-27T10:34:10.506Z,101860.97
2022-12-27T10:36:35.183Z,101856.44
2022-12-27T10:38:44.210Z,101853.41
2022-12-27T10:43:55.015Z,101846.84
2022-12-27T10:46:12.136Z,101845.94
2022-12-27T10:48:18.325Z,101839.53
2022-12-27T10:50:23.158Z,101844.13
2022-12-27T10:52:32.938Z,101846.44
2022-12-27T10:54:53.712Z,101853.38
2022-12-27T10:56:56.464Z,101849.63
2022-12-27T10:59:16.210Z,101848.13
2022-12-27T11:01:25.118Z,101846.84
2022-12-27T11:03:26.997Z,101844.03
2022-12-27T11:05:39.260Z,101850.25
2022-12-27T11:07:42.929Z,101853.88
2022-12-27T11:09:50.662Z,101850.81
2022-12-27T11:12:10.904Z,101856.53
2022-12-27T11:14:17.377Z,101848.81
2022-12-27T11:16:28.571Z,101857.13
2022-12-27T11:18:34.211Z,101850.59
2022-12-27T11:20:41.537Z,101850.00
2022-12-27T11:22:47.286Z,101852.91
2022-12-27T11:24:52.450Z,101851.63
2022-12-27T11:26:57.586Z,101843.78
2022-12-27T11:29:01.823Z,101838.84
2022-12-27T11:31:06.948Z,101832.41
2022-12-27T11:33:24.418Z,101836.72
2022-12-27T11:35:27.218Z,101841.81
2022-12-27T11:37:31.267Z,101842.16
2022-12-27T11:39:44.965Z,101842.84
2022-12-27T11:41:52.872Z,101843.78
2022-12-27T11:44:00.381Z,101833.91
2022-12-27T11:46:05.672Z,101839.81
2022-12-27T11:48:20.504Z,101840.25
2022-12-27T11:50:40.936Z,101838.13
2022-12-27T11:53:09.043Z,101847.19
2022-12-27T11:55:47.025Z,101851.38
2022-12-27T11:58:22.003Z,101840.59
2022-12-27T12:00:25.677Z,101832.19
2022-12-27T12:02:39.140Z,101824.75
2022-12-27T12:05:16.959Z,101823.03
2022-12-27T12:07:31.741Z,101825.56
2022-12-27T12:09:54.076Z,101819.28
2022-12-27T12:12:38.976Z,101828.75
2022-12-27T12:14:57.007Z,101827.44
2022-12-27T12:17:22.431Z,101827.38
2022-12-27T12:19:42.164Z,101819.47
2022-12-27T12:21:57.747Z,101821.22
2022-12-27T12:24:35.667Z,101822.78
2022-12-27T12:26:55.533Z,101824.16
2022-12-27T12:29:26.183Z,101823.44
2022-12-27T12:31:54.326Z,101816.31
2022-12-27T12:34:27.407Z,101825.00
2022-12-27T12:36:52.923Z,101816.56
2022-12-27T12:39:02.699Z,101816.44
2022-12-27T12:41:34.742Z,101803.59
2022-12-27T12:44:16.574Z,101816.56
2022-12-27T12:46:29.185Z,101808.22
2022-12-27T12:49:08.042Z,101807.16
2022-12-27T12:51:26.407Z,101802.03
2022-12-27T12:53:46.813Z,101796.97
2022-12-27T12:56:07.580Z,101791.31
2022-12-27T12:58:24.321Z,101789.38
2022-12-27T13:00:42.990Z,101792.81
2022-12-27T13:03:10.822Z,101792.72
2022-12-27T13:05:22.171Z,101796.50
2022-12-27T13:07:47.655Z,101797.88
2022-12-27T13:10:23.110Z,101800.00
2022-12-27T13:12:38.580Z,101794.88
2022-12-27T13:15:03.809Z,101790.38
2022-12-27T13:17:12.447Z,101785.94
2022-12-27T13:19:34.472Z,101791.09
2022-12-27T13:21:53.737Z,101787.56
2022-12-27T13:24:12.222Z,101785.03
2022-12-27T13:26:22.569Z,101784.88
2022-12-27T13:28:34.945Z,101793.69
2022-12-27T13:30:41.892Z,101793.06
2022-12-27T13:33:01.170Z,101786.53
2022-12-27T13:35:32.779Z,101792.22
2022-12-27T13:37:54.248Z,101793.53
2022-12-27T13:40:10.849Z,101791.00
2022-12-27T13:42:59.114Z,101787.16
2022-12-27T13:45:07.342Z,101784.63
2022-12-27T13:47:43.021Z,101786.63
2022-12-27T13:50:03.322Z,101786.69
2022-12-27T13:52:16.758Z,101785.59
2022-12-27T13:54:55.329Z,101786.41
2022-12-27T13:57:08.523Z,101777.69
2022-12-27T13:59:36.205Z,101771.41
2022-12-27T14:02:11.711Z,101783.81
2022-12-27T14:04:41.859Z,101780.13
2022-12-27T14:06:59.799Z,101780.47
2022-12-27T14:09:37.153Z,101783.00
2022-12-27T14:11:54.108Z,101787.75
2022-12-27T14:13:58.301Z,101786.78
2022-12-27T14:16:24.521Z,101793.72
2022-12-27T14:18:50.262Z,101789.38
2022-12-27T14:21:09.633Z,101782.75
2022-12-27T14:23:42.615Z,101783.88
2022-12-27T14:26:16.716Z,101771.41
2022-12-27T14:28:59.658Z,101778.75
2022-12-27T14:31:38.869Z,101778.84
2022-12-27T14:34:13.773Z,101774.81
2022-12-27T14:36:42.503Z,101768.28
2022-12-27T14:39:16.277Z,101776.34
2022-12-27T14:41:45.681Z,101771.56
2022-12-27T14:44:28.965Z,101770.91
2022-12-27T14:47:09.752Z,101771.72
2022-12-27T14:50:04.217Z,101769.28
2022-12-27T14:52:47.493Z,101767.66
2022-12-27T14:55:24.951Z,101766.25
2022-12-27T14:57:39.627Z,101761.19
2022-12-27T14:59:53.003Z,101758.97
2022-12-27T15:02:09.501Z,101764.06
2022-12-27T15:04:38.652Z,101754.59
2022-12-27T15:07:14.265Z,101758.19
2022-12-27T15:09:36.435Z,101761.94
2022-12-27T15:11:54.671Z,101753.28
2022-12-27T15:14:20.692Z,101751.63
2022-12-27T15:16:34.313Z,101750.47
2022-12-27T15:18:52.675Z,101754.16
2022-12-27T15:21:10.458Z,101745.25
2022-12-27T15:23:24.139Z,101745.34
2022-12-27T15:25:47.838Z,101744.53
2022-12-27T15:28:01.350Z,101748.50
2022-12-27T15:30:25.442Z,101745.25
2022-12-27T15:32:37.206Z,101748.00
2022-12-27T15:34:57.135Z,101748.50
2022-12-27T15:36:59.531Z,101747.09
2022-12-27T15:39:01.884Z,101748.31
2022-12-27T15:41:47.449Z,101746.09
2022-12-27T15:44:04.010Z,101745.28
2022-12-27T15:46:35.749Z,101747.19
2022-12-27T15:49:02.999Z,101750.94
2022-12-27T15:51:11.333Z,101753.25
2022-12-27T15:53:28.089Z,101758.16
2022-12-27T15:58:37.465Z,101762.81
2022-12-27T16:00:46.573Z,101752.63
2022-12-27T16:03:21.133Z,101752.16
2022-12-27T16:05:59.256Z,101749.00
2022-12-27T16:12:02.693Z,101736.47
2022-12-27T16:14:34.299Z,101745.13
2022-12-27T16:17:22.923Z,101747.25
2022-12-27T16:20:01.053Z,101734.53
2022-12-27T16:22:23.751Z,101736.88
2022-12-27T16:24:32.495Z,101740.88
2022-12-27T16:27:10.385Z,101737.03
2022-12-27T16:29:21.261Z,101739.06
2022-12-27T16:31:25.204Z,101734.47
2022-12-27T16:33:42.540Z,101736.13
2022-12-27T16:35:44.756Z,101726.06
2022-12-27T16:37:54.898Z,101729.81
2022-12-27T16:40:36.231Z,101727.50
2022-12-27T16:43:26.444Z,101729.97
2022-12-27T16:45:38.565Z,101719.31
2022-12-27T16:50:08.900Z,101711.97
2022-12-27T16:52:32.229Z,101710.59
2022-12-27T16:54:49.408Z,101710.19
2022-12-27T16:57:49.708Z,101718.34
2022-12-27T17:00:00.233Z,101708.22
2022-12-27T17:02:02.140Z,101708.81
2022-12-27T17:04:04.422Z,101710.44
2022-12-27T17:06:40.400Z,101710.94
2022-12-27T17:09:06.303Z,101709.88
2022-12-27T17:11:25.875Z,101708.22
2022-12-27T17:13:40.197Z,101706.94
2022-12-27T17:15:49.762Z,101703.66
2022-12-27T17:17:55.727Z,101699.22
2022-12-27T17:20:03.552Z,101703.56
2022-12-27T17:22:08.204Z,101703.31
2022-12-27T17:24:14.014Z,101699.56
2022-12-27T17:26:40.498Z,101700.16
2022-12-27T17:28:52.497Z,101689.63
2022-12-27T17:31:02.865Z,101696.88
2022-12-27T17:33:29.025Z,101695.25
2022-12-27T17:35:40.945Z,101698.19
2022-12-27T17:37:51.307Z,101695.69
2022-12-27T17:40:10.215Z,101692.44
2022-12-27T17:42:19.283Z,101692.59
2022-12-27T17:44:32.576Z,101697.47
2022-12-27T17:46:42.878Z,101688.00
2022-12-27T17:48:45.771Z,101682.28
2022-12-27T17:50:49.836Z,101679.59
2022-12-27T17:53:15.556Z,101675.59
2022-12-27T17:55:21.032Z,101673.97
2022-12-27T17:57:23.105Z,101671.06
2022-12-27T17:59:29.098Z,101667.06
2022-12-27T18:01:44.045Z,101670.34
2022-12-27T18:03:47.495Z,101663.78
2022-12-27T18:05:49.786Z,101670.22
2022-12-27T18:07:59.607Z,101668.38
2022-12-27T18:10:04.888Z,101670.00
2022-12-27T18:12:15.661Z,101669.75
2022-12-27T18:14:17.674Z,101668.38
2022-12-27T18:16:30.442Z,101659.25
2022-12-27T18:18:34.088Z,101661.94
2022-12-27T18:20:38.561Z,101660.31
2022-12-27T18:22:40.138Z,101657.97
2022-12-27T18:24:41.911Z,101654.94
2022-12-27T18:26:43.843Z,101652.25
2022-12-27T18:28:45.928Z,101648.44
2022-12-27T18:30:50.239Z,101647.03
2022-12-27T18:32:55.713Z,101649.13
2022-12-27T18:35:01.154Z,101649.03
2022-12-27T18:37:06.580Z,101651.47
2022-12-27T18:39:20.235Z,101650.56
2022-12-27T18:41:23.406Z,101647.28
2022-12-27T18:43:25.598Z,101644.59
2022-12-27T18:45:31.189Z,101644.38
2022-12-27T18:47:37.914Z,101641.69
2022-12-27T18:49:41.014Z,101632.22
2022-12-27T18:51:43.068Z,101635.72
2022-12-27T18:53:44.801Z,101634.09
2022-12-27T18:55:57.367Z,101638.28
2022-12-27T18:58:06.695Z,101629.38
2022-12-27T19:00:19.251Z,101625.56
2022-12-27T19:02:33.903Z,101629.03
2022-12-27T19:04:35.985Z,101625.56
2022-12-27T19:06:39.585Z,101626.34
2022-12-27T19:08:46.858Z,101624.50
2022-12-27T19:10:51.572Z,101624.50
2022-12-27T19:12:54.834Z,101619.94
2022-12-27T19:14:57.445Z,101626.69
2022-12-27T19:17:04.061Z,101613.25
2022-12-27T19:19:18.724Z,101615.94
2022-12-27T19:21:30.219Z,101603.78
2022-12-27T19:23:36.170Z,101605.81
2022-12-27T19:25:37.778Z,101602.22
2022-12-27T19:27:39.414Z,101596.00
2022-12-27T19:29:49.218Z,101596.00
2022-12-27T19:31:54.492Z,101598.59
2022-12-27T19:34:00.543Z,101598.16
2022-12-27T19:36:07.021Z,101600.38
2022-12-27T19:38:19.813Z,101600.03
2022-12-27T19:40:23.658Z,101599.53
2022-12-27T19:42:28.086Z,101604.00
2022-12-27T19:44:31.679Z,101601.56
2022-12-27T19:46:33.882Z,101602.13
2022-12-27T19:48:35.648Z,101600.97
2022-12-27T19:50:39.939Z,101583.91
2022-12-27T19:52:41.745Z,101585.22
2022-12-27T19:54:43.969Z,101573.19
2022-12-27T19:56:47.895Z,101569.91
2022-12-27T19:58:50.593Z,101575.28
2022-12-27T20:00:54.534Z,101570.47
2022-12-27T20:02:56.504Z,101568.41
2022-12-27T20:04:58.437Z,101577.38
2022-12-27T20:07:01.251Z,101567.84
2022-12-27T20:09:04.415Z,101556.50
2022-12-27T20:11:10.727Z,101557.81
2022-12-27T20:13:14.250Z,101554.53
2022-12-27T20:15:16.225Z,101557.94
2022-12-27T20:17:18.202Z,101549.03
2022-12-27T20:19:23.188Z,101553.81
2022-12-27T20:21:24.930Z,101547.31
2022-12-27T20:23:29.307Z,101555.25
2022-12-27T20:25:31.784Z,101551.63
2022-12-27T20:27:41.266Z,101546.81
2022-12-27T20:29:44.924Z,101543.19
2022-12-27T20:31:46.836Z,101548.09
2022-12-27T20:33:51.996Z,101544.94
2022-12-27T20:36:00.050Z,101542.81
2022-12-27T20:38:02.136Z,101537.91
2022-12-27T20:40:04.706Z,101539.22
2022-12-27T20:42:06.517Z,101548.56
2022-12-27T20:44:09.949Z,101536.53
2022-12-27T20:46:15.774Z,101537.69
2022-12-27T20:48:17.529Z,101536.06
2022-12-27T20:50:19.448Z,101530.03
2022-12-27T20:52:24.402Z,101535.03
2022-12-27T20:54:30.502Z,101528.94
2022-12-27T20:56:32.264Z,101527.56
2022-12-27T20:58:37.173Z,101528.97
2022-12-27T21:00:39.223Z,101528.38
2022-12-27T21:02:42.699Z,101526.53
2022-12-27T21:04:44.635Z,101524.66
2022-12-27T21:06:46.331Z,101515.53
2022-12-27T21:08:56.214Z,101508.06
2022-12-27T21:11:05.060Z,101510.22
2022-12-27T21:13:09.468Z,101509.13
2022-12-27T21:15:11.295Z,101514.75
2022-12-27T21:17:13.014Z,101515.91
2022-12-27T21:19:16.005Z,101514.63
2022-12-27T21:21:20.052Z,101516.50
2022-12-27T21:23:21.715Z,101523.00
2022-12-27T21:25:23.279Z,101519.75
2022-12-27T21:27:24.853Z,101515.56
2022-12-27T21:29:26.754Z,101518.47
2022-12-27T21:31:29.550Z,101517.78
2022-12-27T21:33:32.123Z,101516.13
2022-12-27T21:35:35.260Z,101508.66
2022-12-27T21:37:36.860Z,101503.19
2022-12-27T21:39:38.614Z,101502.94
2022-12-27T21:41:40.965Z,101504.13
2022-12-27T21:43:43.225Z,101497.91
2022-12-27T21:45:44.989Z,101498.63
2022-12-27T21:47:50.990Z,101501.78
2022-12-27T21:49:52.575Z,101495.72
2022-12-27T21:51:55.726Z,101499.00
2022-12-27T21:53:58.339Z,101492.34
2022-12-27T21:56:00.120Z,101495.28
2022-12-27T21:58:01.761Z,101490.38
2022-12-27T22:00:04.046Z,101486.03
2022-12-27T22:02:08.833Z,101488.97
2022-12-27T22:04:10.566Z,101495.97
2022-12-27T22:06:14.591Z,101485.03
2022-12-27T22:08:17.493Z,101484.44
2022-12-27T22:10:19.213Z,101476.97
2022-12-27T22:12:20.784Z,101473.69
2022-12-27T22:14:25.638Z,101468.78
2022-12-27T22:16:30.072Z,101469.84
2022-12-27T22:18:32.683Z,101471.59
2022-12-27T22:20:34.279Z,101469.63
2022-12-27T22:22:35.916Z,101472.75
2022-12-27T22:24:38.853Z,101466.25
2022-12-27T22:26:40.512Z,101464.59
2022-12-27T22:28:42.771Z,101469.03
2022-12-27T22:30:44.387Z,101467.63
2022-12-27T22:32:46.060Z,101464.81
2022-12-27T22:34:47.797Z,101466.25
2022-12-27T22:36:50.663Z,101462.03
2022-12-27T22:38:52.477Z,101475.91
2022-12-27T22:41:03.628Z,101469.28
2022-12-27T22:43:05.307Z,101472.16
2022-12-27T22:45:07.643Z,101470.53
2022-12-27T22:47:26.204Z,101466.47
2022-12-27T22:49:28.779Z,101474.84
2022-12-27T22:51:32.852Z,101470.44
2022-12-27T22:53:34.615Z,101468.34
2022-12-27T22:55:40.112Z,101463.78
2022-12-27T22:57:46.180Z,101462.72
2022-12-27T22:59:47.864Z,101471.38
2022-12-27T23:01:49.503Z,101464.38
2022-12-27T23:03:51.305Z,101460.03
2022-12-27T23:05:57.252Z,101461.94
2022-12-27T23:08:05.981Z,101449.78
2022-12-27T23:10:09.940Z,101459.09
2022-12-27T23:12:11.554Z,101456.19
2022-12-27T23:14:16.797Z,101447.78
2022-12-27T23:16:18.475Z,101447.09
2022-12-27T23:18:20.076Z,101444.06
2022-12-27T23:20:21.693Z,101430.03
2022-12-27T23:22:23.319Z,101429.22
2022-12-27T23:24:24.954Z,101434.22
2022-12-27T23:26:27.203Z,101432.13
2022-12-27T23:28:28.819Z,101437.41
2022-12-27T23:30:32.124Z,101429.84
2022-12-27T23:32:33.715Z,101424.91
2022-12-27T23:34:35.342Z,101432.38
2022-12-27T23:36:36.955Z,101427.22
2022-12-27T23:38:39.445Z,101430.75
2022-12-27T23:40:41.136Z,101425.59
2022-12-27T23:42:42.789Z,101426.19
2022-12-27T23:44:44.371Z,101424.53
2022-12-27T23:46:47.316Z,101413.59
2022-12-27T23:48:49.342Z,101417.34
2022-12-27T23:50:50.881Z,101417.44
2022-12-27T23:52:52.423Z,101414.06
2022-12-27T23:54:54.124Z,101400.91
2022-12-27T23:56:55.679Z,101400.41
2022-12-27T23:58:59.320Z,101388.53
